Terminal Aerodrome Forecast
Issued by NWS

Home | Current Version | Previous Version | Text Only | Print | Product List | Glossary Off
Versions: 1 2 3 4 5 6 7 8 9 10 11 12

000
FTUS43 KMPX 201127
TAFRWF
TAF
KRWF 201127Z 2012/2112 18007KT P6SM SKC WS020/22040KT
     FM201400 18011KT P6SM SKC
     FM201900 17020G30KT P6SM FEW250
     FM210300 17015G28KT P6SM BKN080
     FM211000 17016G24KT P6SM VCSH BKN025=

USA.gov is the U.S. government's official web portal to all federal, state and local government web resources and services.